Time;durP1;ratioP1;P1;durP2;ratioP2;P2;SDS_P1;SDS_P2;PMS_P1;PMS_P2;Temp;Humidity;BMP_temperature;BMP_pressure;BME280_temperature;BME280_humidity;BME280_pressure;Samples;Min_cycle;Max_cycle;Signal;HPM_P1;HPM_P2
2023/12/27 00:02:03;;;;;;;23.70;11.20;;;;;;;5.93;100.00;97706.41;5095868;27;20027;-73
2023/12/27 00:04:29;;;;;;;30.60;12.38;;;;;;;5.99;100.00;97723.88;5112934;28;20096;-72
2023/12/27 00:06:56;;;;;;;26.15;12.27;;;;;;;6.02;100.00;97729.03;5123973;27;20068;-73
2023/12/27 00:09:22;;;;;;;31.88;14.57;;;;;;;6.01;100.00;97722.00;5128562;27;20405;-72
2023/12/27 00:11:48;;;;;;;38.70;14.63;;;;;;;6.17;100.00;97703.66;5119525;27;20030;-72
2023/12/27 00:14:14;;;;;;;39.08;16.25;;;;;;;6.21;100.00;97706.13;5119784;27;20023;-72
2023/12/27 00:16:40;;;;;;;32.00;14.52;;;;;;;6.23;100.00;97698.06;5102454;27;20019;-72
2023/12/27 00:19:06;;;;;;;30.92;13.65;;;;;;;6.23;100.00;97704.25;5119471;27;20050;-72
2023/12/27 00:21:31;;;;;;;24.88;11.93;;;;;;;6.26;100.00;97697.94;5119389;27;20065;-72
2023/12/27 00:23:57;;;;;;;33.58;11.50;;;;;;;6.22;100.00;97697.19;5138114;27;20019;-73
2023/12/27 00:26:23;;;;;;;31.02;10.40;;;;;;;6.22;100.00;97686.59;5115402;27;20022;-72
2023/12/27 00:28:48;;;;;;;21.75;8.23;;;;;;;6.34;100.00;97690.50;5158934;27;20023;-73
2023/12/27 00:31:14;;;;;;;20.85;9.93;;;;;;;6.39;100.00;97699.16;5114284;27;20049;-73
2023/12/27 00:33:40;;;;;;;21.85;10.15;;;;;;;6.35;100.00;97684.28;5124881;27;20438;-74
2023/12/27 00:36:06;;;;;;;25.20;10.63;;;;;;;6.25;100.00;97685.59;5119618;27;20019;-71
2023/12/27 00:38:32;;;;;;;20.38;10.10;;;;;;;6.21;100.00;97705.25;5102592;27;20070;-72
2023/12/27 00:40:59;;;;;;;22.40;10.35;;;;;;;6.18;100.00;97705.38;5119595;27;20023;-72
2023/12/27 00:43:24;;;;;;;25.63;10.30;;;;;;;5.99;100.00;97706.16;5119487;27;20023;-73
2023/12/27 00:45:50;;;;;;;42.35;16.77;;;;;;;5.93;100.00;97713.50;5123443;27;20058;-72
2023/12/27 00:48:16;;;;;;;17.70;8.70;;;;;;;5.72;100.00;97712.53;5119843;27;20027;-72
2023/12/27 00:50:41;;;;;;;17.75;7.93;;;;;;;5.57;100.00;97722.91;5105620;27;20034;-72
2023/12/27 00:53:07;;;;;;;14.70;6.90;;;;;;;5.43;100.00;97715.47;5130727;27;20521;-73
2023/12/27 00:55:33;;;;;;;17.40;7.45;;;;;;;5.42;100.00;97729.66;5141150;27;20022;-73
2023/12/27 00:57:59;;;;;;;17.65;7.88;;;;;;;5.33;100.00;97736.19;5135526;27;20168;-71
2023/12/27 01:00:24;;;;;;;21.38;7.43;;;;;;;5.37;100.00;97721.03;5118627;27;20019;-71
2023/12/27 01:02:50;;;;;;;28.38;8.15;;;;;;;5.33;100.00;97716.75;5158187;27;20022;-73
2023/12/27 01:05:15;;;;;;;17.90;7.30;;;;;;;5.37;100.00;97715.72;5139483;27;20031;-72
2023/12/27 01:07:41;;;;;;;15.75;7.43;;;;;;;5.49;100.00;97736.44;5104396;27;20559;-72
2023/12/27 01:10:07;;;;;;;17.85;7.78;;;;;;;5.46;100.00;97725.97;5110786;27;20019;-73
2023/12/27 01:12:33;;;;;;;16.45;6.88;;;;;;;5.41;100.00;97714.69;5119279;27;20102;-73
2023/12/27 01:14:58;;;;;;;33.80;11.52;;;;;;;5.44;100.00;97719.88;5102679;28;20047;-73
2023/12/27 01:17:26;;;;;;;21.80;8.82;;;;;;;5.55;100.00;97722.09;5098878;28;20062;-73
2023/12/27 01:19:51;;;;;;;22.67;9.70;;;;;;;5.56;100.00;97737.97;5109905;27;20035;-73
2023/12/27 01:22:17;;;;;;;26.20;12.10;;;;;;;5.59;100.00;97737.84;5116110;27;20034;-73
2023/12/27 01:24:42;;;;;;;23.55;10.23;;;;;;;5.58;100.00;97730.78;5115679;27;20019;-72
2023/12/27 01:27:08;;;;;;;24.38;10.35;;;;;;;5.57;100.00;97755.59;5115869;27;20035;-72
2023/12/27 01:29:33;;;;;;;29.17;11.20;;;;;;;5.40;100.00;97752.72;5116006;27;20023;-72
2023/12/27 01:31:59;;;;;;;28.92;11.57;;;;;;;5.34;100.00;97766.22;5115751;27;20029;-72
2023/12/27 01:34:24;;;;;;;31.45;14.77;;;;;;;5.29;100.00;97766.38;5115696;27;20043;-72
2023/12/27 01:36:50;;;;;;;36.75;17.77;;;;;;;5.30;100.00;97775.19;5083910;28;20412;-72
2023/12/27 01:39:16;;;;;;;40.53;16.15;;;;;;;5.28;100.00;97763.81;5091931;27;20071;-72
2023/12/27 01:41:41;;;;;;;28.90;12.13;;;;;;;5.32;100.00;97768.91;5115760;27;20023;-72
2023/12/27 01:44:07;;;;;;;28.23;11.75;;;;;;;5.44;100.00;97770.25;5133500;27;20042;-73
2023/12/27 01:46:33;;;;;;;29.27;12.45;;;;;;;5.54;100.00;97787.53;5119232;27;20019;-72
2023/12/27 01:48:59;;;;;;;28.58;11.07;;;;;;;5.37;100.00;97768.75;5095065;28;20027;-72
2023/12/27 01:51:25;;;;;;;27.48;10.27;;;;;;;5.20;100.00;97777.34;5080284;27;20351;-72
2023/12/27 01:53:51;;;;;;;20.00;9.15;;;;;;;5.14;100.00;97776.69;5086818;27;20032;-72
2023/12/27 01:56:17;;;;;;;22.25;8.80;;;;;;;5.01;100.00;97786.03;5098523;28;20020;-73
2023/12/27 01:58:43;;;;;;;25.33;10.02;;;;;;;4.84;100.00;97778.66;5077884;28;20403;-74
2023/12/27 02:01:08;;;;;;;24.85;9.93;;;;;;;4.76;100.00;97775.44;5083493;28;20501;-73
2023/12/27 02:03:34;;;;;;;24.77;10.25;;;;;;;4.78;100.00;97782.41;5109292;27;20015;-71
2023/12/27 02:06:00;;;;;;;23.88;9.40;;;;;;;4.69;100.00;97787.16;5114730;27;20130;-72
2023/12/27 02:08:26;;;;;;;31.42;11.02;;;;;;;4.56;100.00;97785.84;5115047;27;20031;-73
2023/12/27 02:10:52;;;;;;;27.98;11.35;;;;;;;4.54;100.00;97780.63;5107040;28;20451;-72
2023/12/27 02:13:19;;;;;;;23.77;10.60;;;;;;;4.55;100.00;97792.09;5094255;28;20111;-73
2023/12/27 02:15:46;;;;;;;21.95;10.10;;;;;;;4.51;100.00;97796.63;5090684;27;20026;-72
2023/12/27 02:18:12;;;;;;;24.52;9.65;;;;;;;4.53;100.00;97784.16;5114890;27;20034;-73
2023/12/27 02:20:39;;;;;;;24.25;9.85;;;;;;;4.63;100.00;97792.66;5091884;28;20025;-73
2023/12/27 02:23:07;;;;;;;24.95;11.38;;;;;;;4.62;100.00;97799.75;5109737;27;20015;-73
2023/12/27 02:25:34;;;;;;;26.38;10.65;;;;;;;4.63;100.00;97801.50;5097514;27;20055;-72
2023/12/27 02:28:00;;;;;;;22.50;11.30;;;;;;;4.59;100.00;97802.50;5114270;27;20022;-72
2023/12/27 02:30:25;;;;;;;26.92;10.30;;;;;;;4.62;100.00;97802.41;5096557;27;20023;-73
2023/12/27 02:32:51;;;;;;;25.27;10.77;;;;;;;4.76;100.00;97807.22;5101125;27;20031;-73
2023/12/27 02:35:20;;;;;;;24.17;10.77;;;;;;;4.78;100.00;97793.00;5086405;28;20031;-72
2023/12/27 02:37:46;;;;;;;23.95;10.73;;;;;;;4.72;100.00;97795.88;5127426;27;20030;-71
2023/12/27 02:40:11;;;;;;;25.75;11.20;;;;;;;4.65;100.00;97797.00;5133031;27;20046;-72
2023/12/27 02:42:38;;;;;;;21.52;10.15;;;;;;;4.56;100.00;97804.38;5080391;27;20478;-72
2023/12/27 02:45:05;;;;;;;28.77;11.68;;;;;;;4.55;100.00;97814.13;5091475;28;20032;-73
2023/12/27 02:47:30;;;;;;;21.33;10.20;;;;;;;4.14;100.00;97817.28;5103486;27;20108;-73
2023/12/27 02:49:56;;;;;;;19.95;9.55;;;;;;;4.08;100.00;97814.81;5097318;27;20035;-73
2023/12/27 02:52:21;;;;;;;25.33;9.32;;;;;;;4.12;100.00;97821.75;5097758;28;20027;-73
2023/12/27 02:54:47;;;;;;;22.05;10.25;;;;;;;4.13;100.00;97823.47;5099269;27;20019;-72
2023/12/27 02:57:13;;;;;;;26.88;10.95;;;;;;;4.14;100.00;97819.91;5097763;28;20096;-72
2023/12/27 02:59:39;;;;;;;24.70;10.25;;;;;;;4.31;100.00;97828.16;5111920;28;20422;-72
2023/12/27 03:02:04;;;;;;;23.63;9.50;;;;;;;4.29;100.00;97827.38;5107860;27;20376;-72
2023/12/27 03:04:30;;;;;;;24.98;10.80;;;;;;;4.31;100.00;97844.94;5114228;27;20031;-73
2023/12/27 03:06:56;;;;;;;25.75;10.93;;;;;;;4.22;100.00;97842.56;5095747;27;20051;-72
2023/12/27 03:09:21;;;;;;;26.98;10.38;;;;;;;4.16;100.00;97845.41;5114174;27;20558;-72
2023/12/27 03:11:47;;;;;;;33.80;11.52;;;;;;;4.18;100.00;97861.28;5113562;27;20517;-73
2023/12/27 03:14:13;;;;;;;29.27;12.35;;;;;;;4.08;100.00;97851.88;5096974;27;20073;-73
2023/12/27 03:16:39;;;;;;;27.58;12.85;;;;;;;4.12;100.00;97859.66;5113740;27;20058;-73
2023/12/27 03:19:04;;;;;;;34.25;14.77;;;;;;;4.34;100.00;97859.84;5113740;27;20062;-72
2023/12/27 03:21:30;;;;;;;40.55;15.80;;;;;;;4.50;100.00;97870.81;5113638;27;20037;-73
2023/12/27 03:23:55;;;;;;;43.95;16.13;;;;;;;4.47;100.00;97852.38;5110301;28;20406;-72
2023/12/27 03:26:21;;;;;;;34.25;14.80;;;;;;;4.41;100.00;97858.72;5126959;27;20114;-73
2023/12/27 03:28:47;;;;;;;36.72;15.00;;;;;;;4.36;100.00;97856.25;5113407;27;20035;-73
2023/12/27 03:31:13;;;;;;;58.10;22.58;;;;;;;4.46;100.00;97856.78;5110522;28;20508;-73
2023/12/27 03:33:38;;;;;;;50.60;19.50;;;;;;;4.45;100.00;97870.97;5102271;27;20114;-73
2023/12/27 03:36:04;;;;;;;32.45;12.25;;;;;;;4.10;100.00;97874.72;5132189;27;20033;-73
2023/12/27 03:38:30;;;;;;;24.52;10.80;;;;;;;3.81;100.00;97875.59;5113649;27;20039;-73
2023/12/27 03:40:55;;;;;;;24.27;9.82;;;;;;;3.56;100.00;97869.34;5131327;27;20087;-73
2023/12/27 03:43:21;;;;;;;24.42;10.10;;;;;;;3.48;100.00;97867.78;5096382;27;20042;-73
2023/12/27 03:45:49;;;;;;;27.13;10.13;;;;;;;3.53;100.00;97865.91;5110851;27;20031;-73
2023/12/27 03:48:15;;;;;;;21.45;10.10;;;;;;;3.51;100.00;97860.66;5096828;27;20038;-73
2023/12/27 03:50:40;;;;;;;22.48;10.10;;;;;;;3.53;100.00;97864.13;5113042;27;20031;-72
2023/12/27 03:53:06;;;;;;;40.95;15.60;;;;;;;3.45;100.00;97874.03;5096240;27;20019;-73
2023/12/27 03:55:32;;;;;;;32.67;12.23;;;;;;;3.42;100.00;97867.97;5096842;28;20024;-73
2023/12/27 03:57:57;;;;;;;28.10;10.30;;;;;;;3.37;100.00;97865.47;5110305;27;20031;-73
2023/12/27 04:00:23;;;;;;;30.92;10.82;;;;;;;3.31;100.00;97868.28;5112079;27;20027;-73
2023/12/27 04:02:48;;;;;;;30.55;11.75;;;;;;;3.16;100.00;97869.59;5112257;28;20050;-73
2023/12/27 04:05:14;;;;;;;18.02;8.50;;;;;;;3.18;100.00;97870.41;5113038;27;20390;-73
2023/12/27 04:07:40;;;;;;;20.02;9.10;;;;;;;3.20;100.00;97878.28;5121507;27;20080;-73
2023/12/27 04:10:06;;;;;;;22.80;9.27;;;;;;;3.15;100.00;97885.47;5131353;27;20549;-72
2023/12/27 04:12:32;;;;;;;21.67;8.77;;;;;;;3.16;100.00;97895.16;5111845;27;20041;-72
2023/12/27 04:14:57;;;;;;;21.15;8.93;;;;;;;3.14;100.00;97905.75;5133451;27;20482;-73
2023/12/27 04:17:23;;;;;;;26.05;10.27;;;;;;;3.33;100.00;97899.97;5116376;27;20026;-73
2023/12/27 04:19:49;;;;;;;21.20;9.60;;;;;;;3.48;100.00;97905.69;5133772;27;20462;-74
2023/12/27 04:22:15;;;;;;;24.40;9.40;;;;;;;3.43;100.00;97902.31;5126182;27;20054;-73
2023/12/27 04:24:40;;;;;;;28.05;10.70;;;;;;;3.47;100.00;97916.31;5116354;27;20109;-72
2023/12/27 04:27:06;;;;;;;20.83;9.70;;;;;;;3.45;100.00;97905.78;5134607;27;20037;-73
2023/12/27 04:29:32;;;;;;;28.77;11.18;;;;;;;3.58;100.00;97917.75;5116414;27;20031;-73
2023/12/27 04:31:57;;;;;;;21.40;9.82;;;;;;;3.60;100.00;97907.97;5143093;27;20106;-72
2023/12/27 04:34:23;;;;;;;30.33;13.45;;;;;;;3.67;100.00;97919.25;5116224;27;20039;-73
2023/12/27 04:36:49;;;;;;;30.17;13.10;;;;;;;3.66;100.00;97909.59;5116080;27;20083;-74
2023/12/27 04:39:14;;;;;;;26.50;12.55;;;;;;;3.76;100.00;97905.75;5139306;27;20324;-72
2023/12/27 04:41:40;;;;;;;22.10;10.60;;;;;;;3.87;100.00;97921.34;5128753;27;20034;-72
2023/12/27 04:44:06;;;;;;;25.85;11.27;;;;;;;3.89;100.00;97908.91;5130486;27;20035;-72
2023/12/27 04:46:31;;;;;;;28.98;12.63;;;;;;;4.02;100.00;97908.50;5110372;27;20054;-73
2023/12/27 04:48:57;;;;;;;27.70;13.15;;;;;;;4.06;100.00;97922.53;5115749;27;20033;-74
2023/12/27 04:51:22;;;;;;;40.05;16.67;;;;;;;3.78;100.00;97917.19;5116019;27;20026;-73
2023/12/27 04:53:48;;;;;;;38.92;16.70;;;;;;;3.77;100.00;97924.25;5133197;27;20462;-72
2023/12/27 04:56:16;;;;;;;43.22;17.30;;;;;;;3.60;100.00;97921.19;5133792;27;20398;-73
2023/12/27 04:58:42;;;;;;;47.92;18.52;;;;;;;3.56;100.00;97914.28;5132289;27;20530;-74
2023/12/27 05:01:08;;;;;;;40.55;15.77;;;;;;;3.45;100.00;97916.34;5116265;27;20117;-73
2023/12/27 05:03:35;;;;;;;43.80;18.00;;;;;;;3.50;100.00;97914.47;5114270;27;20030;-73
2023/12/27 05:06:02;;;;;;;34.90;15.77;;;;;;;3.52;100.00;97917.06;5136919;27;20031;-74
2023/12/27 05:08:28;;;;;;;44.42;18.85;;;;;;;3.32;100.00;97920.25;5110969;27;20453;-72
2023/12/27 05:10:53;;;;;;;46.88;15.68;;;;;;;3.28;100.00;97937.97;5121146;27;20115;-73
2023/12/27 05:13:19;;;;;;;42.60;17.08;;;;;;;3.34;100.00;97944.88;5108608;28;20046;-73
2023/12/27 05:15:46;;;;;;;41.67;17.23;;;;;;;3.33;100.00;97956.34;5111159;27;20027;-72
2023/12/27 05:18:12;;;;;;;34.75;15.93;;;;;;;3.29;100.00;97952.91;5110746;27;20099;-72
2023/12/27 05:20:37;;;;;;;54.58;18.55;;;;;;;3.19;100.00;97966.44;5153226;27;20163;-73
2023/12/27 05:23:03;;;;;;;41.63;17.63;;;;;;;3.03;100.00;97973.00;5119030;27;20029;-73
2023/12/27 05:25:29;;;;;;;47.25;16.35;;;;;;;2.71;100.00;97961.47;5110439;27;20019;-73
2023/12/27 05:27:54;;;;;;;38.30;16.63;;;;;;;2.67;100.00;97982.72;5121046;27;20479;-74
2023/12/27 05:30:20;;;;;;;53.25;22.48;;;;;;;2.75;100.00;97980.75;5136815;27;20030;-73
2023/12/27 05:32:45;;;;;;;58.78;23.35;;;;;;;2.77;100.00;97999.22;5136415;27;20026;-73
2023/12/27 05:35:11;;;;;;;66.53;22.23;;;;;;;2.74;100.00;97985.16;5154676;27;20037;-72
2023/12/27 05:37:37;;;;;;;67.45;26.33;;;;;;;2.73;100.00;97988.72;5130702;27;20054;-72
2023/12/27 05:40:03;;;;;;;60.03;22.55;;;;;;;2.72;100.00;97994.91;5138134;27;20098;-73
2023/12/27 05:42:29;;;;;;;75.75;23.95;;;;;;;2.71;100.00;97997.56;5110934;27;20031;-73
2023/12/27 05:44:55;;;;;;;51.30;19.73;;;;;;;2.82;100.00;98018.44;5131573;27;20019;-73
2023/12/27 05:47:20;;;;;;;40.97;20.10;;;;;;;2.85;100.00;98026.28;5133241;27;20080;-72
2023/12/27 05:49:46;;;;;;;46.40;18.40;;;;;;;2.78;100.00;98030.84;5093851;27;20037;-73
2023/12/27 05:52:12;;;;;;;43.28;16.70;;;;;;;2.83;100.00;98042.16;5101237;28;20032;-73
2023/12/27 05:54:37;;;;;;;63.47;24.98;;;;;;;2.87;100.00;98024.47;5079015;27;20024;-73
2023/12/27 05:57:03;;;;;;;38.05;18.58;;;;;;;2.98;100.00;98035.66;5114911;27;20376;-73
2023/12/27 05:59:29;;;;;;;44.40;20.38;;;;;;;2.96;100.00;98042.75;5136071;27;20030;-73
2023/12/27 06:01:54;;;;;;;54.35;21.10;;;;;;;2.93;100.00;98050.75;5120770;27;20030;-73
2023/12/27 06:04:21;;;;;;;64.60;24.77;;;;;;;2.92;100.00;98054.31;5150088;27;20031;-73
2023/12/27 06:06:49;;;;;;;71.65;26.02;;;;;;;2.99;100.00;98053.25;5135032;27;20139;-73
2023/12/27 06:09:18;;;;;;;64.85;23.90;;;;;;;3.04;100.00;98069.88;5139522;27;20406;-73
2023/12/27 06:11:44;;;;;;;45.60;20.23;;;;;;;2.94;100.00;98053.38;5125310;27;20497;-73
2023/12/27 06:14:10;;;;;;;72.40;23.83;;;;;;;2.94;100.00;98070.97;5118253;27;20026;-74
2023/12/27 06:16:35;;;;;;;60.60;23.67;;;;;;;2.97;100.00;98062.97;5119134;27;20091;-73
2023/12/27 06:19:01;;;;;;;89.38;42.03;;;;;;;3.09;100.00;98063.56;5144827;27;20026;-72
2023/12/27 06:21:27;;;;;;;65.88;25.65;;;;;;;3.11;100.00;98076.72;5118230;27;20053;-82
2023/12/27 06:23:53;;;;;;;57.95;22.88;;;;;;;2.96;100.00;98075.31;5126830;27;20456;-73
2023/12/27 06:26:18;;;;;;;45.55;18.52;;;;;;;2.94;100.00;98069.22;5100808;28;20028;-73
2023/12/27 06:28:44;;;;;;;46.80;18.48;;;;;;;2.97;100.00;98070.91;5094377;27;20039;-73
2023/12/27 06:31:10;;;;;;;52.20;22.08;;;;;;;3.04;100.00;98083.97;5097455;27;20035;-73
2023/12/27 06:33:36;;;;;;;57.13;24.90;;;;;;;3.06;100.00;98087.41;5098558;28;20186;-74
2023/12/27 06:36:04;;;;;;;69.20;27.30;;;;;;;3.06;100.00;98086.53;5093234;28;20038;-73
2023/12/27 06:38:30;;;;;;;62.38;26.10;;;;;;;3.13;100.00;98094.31;5097276;28;20467;-71
2023/12/27 06:40:56;;;;;;;55.90;24.52;;;;;;;3.13;100.00;98081.09;5104580;27;20041;-73
2023/12/27 06:43:22;;;;;;;58.45;23.52;;;;;;;3.17;100.00;98113.56;5114588;27;20038;-73
2023/12/27 06:45:48;;;;;;;47.30;22.27;;;;;;;3.18;100.00;98112.69;5123653;27;20039;-73
2023/12/27 06:48:14;;;;;;;54.70;25.42;;;;;;;3.08;100.00;98105.88;5098484;27;20027;-75
2023/12/27 06:50:40;;;;;;;72.53;27.08;;;;;;;3.25;100.00;98109.00;5097412;27;20501;-73
2023/12/27 06:53:05;;;;;;;55.38;26.35;;;;;;;3.87;100.00;98114.47;5102385;28;20042;-74
2023/12/27 06:55:31;;;;;;;71.75;30.45;;;;;;;5.37;100.00;98121.50;5107996;27;20031;-72
2023/12/27 06:57:57;;;;;;;65.63;30.38;;;;;;;6.85;100.00;98092.34;5140628;27;20047;-77
2023/12/27 07:00:23;;;;;;;71.45;33.22;;;;;;;8.08;100.00;98074.81;5088439;27;20057;-79
2023/12/27 07:02:49;;;;;;;77.88;35.88;;;;;;;8.70;100.00;98069.34;5092097;27;20047;-79
2023/12/27 07:05:14;;;;;;;86.22;40.05;;;;;;;8.79;100.00;98084.09;5086833;27;20046;-79
2023/12/27 07:07:53;;;;;;;109.65;42.50;;;;;;;9.45;100.00;98081.81;5086980;28;20048;-82
2023/12/27 07:10:19;;;;;;;83.47;39.88;;;;;;;10.76;100.00;98090.16;5099609;28;20027;-82
2023/12/27 07:12:44;;;;;;;102.88;46.05;;;;;;;10.80;100.00;98087.22;5078261;28;20403;-73
2023/12/27 07:15:12;;;;;;;94.75;43.80;;;;;;;10.78;100.00;98098.97;5084631;27;20031;-73
2023/12/27 07:17:38;;;;;;;133.13;58.58;;;;;;;11.05;100.00;98100.13;5128956;27;20034;-72
2023/12/27 07:20:04;;;;;;;145.85;59.15;;;;;;;11.04;98.34;98101.09;5113947;27;20023;-73
2023/12/27 07:22:30;;;;;;;133.20;58.58;;;;;;;11.46;94.76;98108.56;5090472;28;20410;-73
2023/12/27 07:24:55;;;;;;;141.73;59.63;;;;;;;11.88;90.33;98113.28;5090225;28;20026;-74
2023/12/27 07:27:21;;;;;;;151.75;64.65;;;;;;;12.24;87.29;98112.97;5112186;27;20026;-74
2023/12/27 07:29:47;;;;;;;116.38;51.22;;;;;;;12.08;88.64;98112.13;5110432;27;20470;-73
2023/12/27 07:32:12;;;;;;;123.50;54.35;;;;;;;11.94;88.37;98121.84;5128969;27;20137;-74
2023/12/27 07:34:38;;;;;;;110.10;51.50;;;;;;;12.57;81.64;98092.16;5110212;27;20084;-73
2023/12/27 07:37:04;;;;;;;87.80;42.17;;;;;;;13.01;80.30;98109.03;5093250;27;20026;-73
2023/12/27 07:39:32;;;;;;;86.95;44.08;;;;;;;13.12;76.41;98108.41;5093593;28;20092;-73
2023/12/27 07:41:59;;;;;;;77.05;41.50;;;;;;;13.71;73.83;98106.38;5093652;27;20027;-75
2023/12/27 07:44:24;;;;;;;84.57;45.55;;;;;;;14.02;71.58;98103.41;5106804;27;20027;-74
2023/12/27 07:46:50;;;;;;;89.57;47.22;;;;;;;14.63;68.46;98111.75;5089684;28;20027;-74
2023/12/27 07:49:15;;;;;;;59.17;30.42;;;;;;;15.10;62.68;98107.56;5072840;28;20074;-74
2023/12/27 07:51:41;;;;;;;61.38;35.08;;;;;;;14.04;66.30;98104.13;5095286;27;20565;-73
2023/12/27 07:54:07;;;;;;;72.50;41.38;;;;;;;14.41;66.07;98089.97;5110150;27;20102;-73
2023/12/27 07:56:34;;;;;;;58.80;31.08;;;;;;;15.30;63.67;98092.63;5093176;27;20528;-73
2023/12/27 07:59:00;;;;;;;89.70;44.83;;;;;;;14.11;66.73;98094.69;5093645;27;20027;-74
2023/12/27 08:01:31;;;;;;;74.78;35.17;;;;;;;14.17;67.62;98101.50;5092675;28;20027;-73
2023/12/27 08:03:57;;;;;;;46.08;20.30;;;;;;;14.83;65.21;98104.94;5093880;27;20038;-73
2023/12/27 08:06:22;;;;;;;40.10;18.70;;;;;;;15.20;62.13;98119.38;5109475;28;20069;-74
2023/12/27 08:08:48;;;;;;;43.45;21.65;;;;;;;14.84;64.10;98121.97;5092879;28;20038;-74
2023/12/27 08:11:14;;;;;;;51.88;26.42;;;;;;;14.69;64.85;98107.75;5110078;28;20027;-74
2023/12/27 08:13:39;;;;;;;66.05;31.17;;;;;;;14.36;68.01;98121.72;5105989;28;20426;-74
2023/12/27 08:16:07;;;;;;;100.95;41.38;;;;;;;14.18;69.29;98138.22;5101736;28;20548;-73
2023/12/27 08:18:32;;;;;;;95.22;41.95;;;;;;;14.56;68.08;98144.56;5110049;28;20123;-73
2023/12/27 08:20:58;;;;;;;105.25;49.42;;;;;;;14.34;70.16;98149.69;5094946;28;20114;-73
2023/12/27 08:23:24;;;;;;;79.90;39.38;;;;;;;14.27;71.62;98154.59;5107542;28;20023;-74
2023/12/27 08:25:49;;;;;;;82.18;42.38;;;;;;;14.98;67.32;98146.97;5072629;28;20044;-74
2023/12/27 08:28:15;;;;;;;92.15;43.67;;;;;;;15.25;64.98;98148.72;5080765;28;20027;-73
2023/12/27 08:30:41;;;;;;;79.03;39.20;;;;;;;14.43;67.44;98166.06;5105615;27;20057;-73
2023/12/27 08:33:07;;;;;;;79.10;38.92;;;;;;;15.32;64.54;98166.19;5113855;27;20031;-73
2023/12/27 08:35:36;;;;;;;75.00;38.10;;;;;;;15.40;62.73;98158.41;5113605;27;20035;-73
2023/12/27 08:38:05;;;;;;;73.90;38.35;;;;;;;15.80;62.48;98167.19;5097187;27;20033;-73
2023/12/27 08:40:30;;;;;;;70.15;36.35;;;;;;;16.66;57.84;98161.56;5097099;27;20122;-73
2023/12/27 08:42:57;;;;;;;68.55;34.67;;;;;;;15.78;60.26;98170.00;5132238;27;20146;-74
2023/12/27 08:45:23;;;;;;;56.92;29.30;;;;;;;15.58;61.42;98174.16;5096642;27;20092;-73
2023/12/27 08:47:49;;;;;;;50.08;25.83;;;;;;;16.59;59.31;98178.34;5100915;28;20024;-73
2023/12/27 08:50:15;;;;;;;36.15;19.38;;;;;;;17.76;55.52;98176.25;5092527;27;20027;-74
2023/12/27 08:52:40;;;;;;;26.17;13.98;;;;;;;18.02;54.57;98176.84;5084935;28;20034;-75
2023/12/27 08:55:08;;;;;;;18.50;10.82;;;;;;;17.93;52.81;98155.06;5108060;27;20092;-73
2023/12/27 08:57:34;;;;;;;18.20;9.18;;;;;;;17.62;53.67;98165.69;5132068;27;20050;-73
2023/12/27 09:00:00;;;;;;;17.75;9.15;;;;;;;18.15;52.17;98174.81;5096248;27;20061;-73
2023/12/27 09:02:27;;;;;;;17.25;7.75;;;;;;;18.30;51.87;98176.25;5093044;28;20055;-73
2023/12/27 09:04:52;;;;;;;13.00;6.50;;;;;;;18.96;49.92;98171.59;5088441;27;20034;-73
2023/12/27 09:07:18;;;;;;;15.40;7.57;;;;;;;18.83;50.10;98177.22;5127604;27;20114;-73
2023/12/27 09:09:43;;;;;;;11.63;6.85;;;;;;;18.56;50.18;98179.53;5112416;27;20470;-73
2023/12/27 09:12:09;;;;;;;20.45;11.75;;;;;;;18.66;50.34;98177.78;5133482;27;20030;-73
2023/12/27 09:14:38;;;;;;;15.63;6.65;;;;;;;18.57;51.01;98170.44;5130748;27;20472;-74
2023/12/27 09:17:04;;;;;;;14.02;6.15;;;;;;;19.21;49.78;98159.50;5151947;27;20022;-74
2023/12/27 09:19:29;;;;;;;15.75;6.25;;;;;;;19.39;48.40;98150.63;5135146;27;20358;-73
2023/12/27 09:21:55;;;;;;;12.73;6.20;;;;;;;19.93;47.76;98152.97;5113650;27;20062;-74
2023/12/27 09:24:21;;;;;;;13.35;6.70;;;;;;;19.73;47.15;98148.50;5133568;27;20022;-74
2023/12/27 09:26:49;;;;;;;11.95;5.75;;;;;;;20.05;46.78;98150.19;5132591;27;20138;-73
2023/12/27 09:29:15;;;;;;;13.20;6.38;;;;;;;20.81;45.01;98128.53;5116077;27;20054;-73
2023/12/27 09:31:41;;;;;;;13.88;7.15;;;;;;;19.80;46.47;98136.09;5109962;27;20061;-74
2023/12/27 09:34:07;;;;;;;10.90;6.57;;;;;;;20.22;45.94;98136.75;5120171;27;20113;-73
2023/12/27 09:36:32;;;;;;;14.30;7.10;;;;;;;20.95;44.95;98125.34;5116398;27;20029;-73
2023/12/27 09:38:59;;;;;;;21.42;8.35;;;;;;;20.82;45.46;98119.38;5115839;27;20396;-73
2023/12/27 09:41:24;;;;;;;17.38;7.32;;;;;;;20.31;46.16;98125.09;5130047;27;20015;-74
2023/12/27 09:43:53;;;;;;;14.60;7.03;;;;;;;20.11;46.46;98138.75;5132068;27;20046;-73
2023/12/27 09:46:19;;;;;;;15.00;9.10;;;;;;;20.77;45.34;98112.63;5131508;27;20508;-73
2023/12/27 09:48:45;;;;;;;17.48;8.35;;;;;;;21.44;44.41;98109.81;5132775;27;20026;-72
2023/12/27 09:51:11;;;;;;;15.32;8.27;;;;;;;21.41;44.05;98113.66;5115722;27;20478;-73
2023/12/27 09:53:56;;;;;;;27.35;10.23;;;;;;;20.66;45.25;98124.53;5115685;27;20033;-73
2023/12/27 09:56:22;;;;;;;32.03;11.20;;;;;;;20.40;46.14;98115.22;5115120;27;20026;-74
2023/12/27 09:58:56;;;;;;;31.27;11.45;;;;;;;20.53;46.19;98115.81;5114252;27;20427;-73
2023/12/27 10:01:24;;;;;;;24.92;15.18;;;;;;;20.86;45.57;98126.22;5128616;27;20547;-73
2023/12/27 10:03:54;;;;;;;23.77;13.48;;;;;;;21.36;44.60;98128.75;5112404;27;20109;-73
2023/12/27 10:06:20;;;;;;;25.48;14.95;;;;;;;22.10;43.36;98129.59;5128905;27;20039;-73
2023/12/27 10:08:46;;;;;;;25.77;12.45;;;;;;;21.14;44.48;98115.47;5130585;27;20065;-73
2023/12/27 10:11:12;;;;;;;20.50;11.45;;;;;;;22.58;42.74;98111.00;5112220;27;20119;-74
2023/12/27 10:13:41;;;;;;;22.75;12.98;;;;;;;22.95;41.80;98107.28;5111922;27;20022;-73
2023/12/27 10:16:07;;;;;;;18.52;10.13;;;;;;;21.70;43.41;98116.28;5130629;27;20058;-74
2023/12/27 10:18:33;;;;;;;15.38;8.30;;;;;;;20.81;45.13;98112.22;5132105;27;20426;-73
2023/12/27 10:20:59;;;;;;;17.10;8.43;;;;;;;20.84;45.73;98097.47;5132292;27;20105;-72
2023/12/27 10:23:24;;;;;;;14.02;7.28;;;;;;;21.78;44.66;98091.88;5132474;27;20034;-72
2023/12/27 10:25:53;;;;;;;9.13;5.63;;;;;;;21.76;44.75;98083.00;5132299;27;20019;-73
2023/12/27 10:28:25;;;;;;;16.70;6.97;;;;;;;21.66;44.47;98101.25;5130910;27;20122;-73
2023/12/27 10:30:51;;;;;;;18.30;8.15;;;;;;;21.94;44.80;98093.97;5131340;27;20500;-74
2023/12/27 10:33:19;;;;;;;17.73;7.03;;;;;;;23.00;42.72;98088.56;5150563;27;20062;-74
2023/12/27 10:35:45;;;;;;;11.77;6.80;;;;;;;22.76;42.69;98083.78;5126836;27;20027;-74
2023/12/27 10:38:11;;;;;;;14.25;7.93;;;;;;;22.83;43.08;98086.69;5115114;27;20498;-73
2023/12/27 10:40:39;;;;;;;23.08;8.98;;;;;;;22.67;42.80;98092.91;5129840;27;20436;-73
2023/12/27 10:43:05;;;;;;;17.83;8.45;;;;;;;23.11;42.17;98088.28;5132466;27;20026;-74
2023/12/27 10:45:31;;;;;;;19.70;8.70;;;;;;;22.67;42.50;98096.47;5130532;27;20347;-73
2023/12/27 10:48:02;;;;;;;21.70;9.23;;;;;;;22.82;42.36;98099.50;5114601;27;20031;-73
2023/12/27 10:50:28;;;;;;;16.23;8.98;;;;;;;23.39;41.25;98091.72;5114248;27;20038;-73
2023/12/27 10:53:07;;;;;;;17.02;7.18;;;;;;;23.93;40.06;98080.41;5114301;27;20497;-73
2023/12/27 10:55:33;;;;;;;12.27;6.38;;;;;;;24.17;39.32;98069.59;5131203;27;20402;-73
2023/12/27 10:58:01;;;;;;;12.48;6.05;;;;;;;23.25;40.29;98074.06;5132381;27;20077;-74
2023/12/27 11:00:28;;;;;;;23.48;9.20;;;;;;;23.04;41.98;98088.06;5129561;27;20030;-74
2023/12/27 11:03:00;;;;;;;21.38;8.60;;;;;;;24.17;39.72;98080.53;5115339;27;20110;-75
2023/12/27 11:05:29;;;;;;;17.58;7.80;;;;;;;24.63;38.76;98068.13;5125166;27;20109;-73
2023/12/27 11:07:56;;;;;;;12.15;6.47;;;;;;;23.96;39.18;98068.28;5133318;27;20050;-74
2023/12/27 11:10:23;;;;;;;10.23;5.85;;;;;;;23.58;39.72;98073.25;5115360;27;20037;-74
2023/12/27 11:12:50;;;;;;;11.27;5.88;;;;;;;23.23;40.30;98082.41;5116807;27;20033;-73
2023/12/27 11:15:18;;;;;;;12.57;5.63;;;;;;;22.90;41.07;98091.38;5115638;27;20026;-73